sensor_id;sensor_type;location;lat;lon;timestamp;pressure;altitude;pressure_sealevel;temperature;humidity
40612;BME280;26317;44.894;20.286;2023-04-01T00:01:34;99567.81;;;15.74;59.80
40612;BME280;26317;44.894;20.286;2023-04-01T00:04:29;99562.25;;;15.70;59.92
40612;BME280;26317;44.894;20.286;2023-04-01T00:07:12;99555.84;;;15.75;60.77
40612;BME280;26317;44.894;20.286;2023-04-01T00:10:03;99549.34;;;15.76;60.29
40612;BME280;26317;44.894;20.286;2023-04-01T00:12:51;99553.75;;;15.80;60.40
40612;BME280;26317;44.894;20.286;2023-04-01T00:18:30;99555.34;;;15.81;60.97
40612;BME280;26317;44.894;20.286;2023-04-01T00:21:13;99559.56;;;15.91;60.99
40612;BME280;26317;44.894;20.286;2023-04-01T00:23:56;99556.00;;;15.99;61.00
40612;BME280;26317;44.894;20.286;2023-04-01T00:26:38;99581.75;;;16.05;60.50
40612;BME280;26317;44.894;20.286;2023-04-01T00:29:20;99598.56;;;16.10;60.66
40612;BME280;26317;44.894;20.286;2023-04-01T00:32:08;99590.78;;;16.09;60.74
40612;BME280;26317;44.894;20.286;2023-04-01T00:34:49;99584.13;;;16.06;61.74
40612;BME280;26317;44.894;20.286;2023-04-01T00:37:29;99564.91;;;15.99;61.72
40612;BME280;26317;44.894;20.286;2023-04-01T00:40:20;99565.25;;;15.98;62.17
40612;BME280;26317;44.894;20.286;2023-04-01T00:42:58;99556.78;;;15.99;61.95
40612;BME280;26317;44.894;20.286;2023-04-01T00:45:38;99549.81;;;15.98;62.26
40612;BME280;26317;44.894;20.286;2023-04-01T00:48:19;99555.47;;;16.05;62.13
40612;BME280;26317;44.894;20.286;2023-04-01T00:51:02;99552.59;;;16.10;62.06
40612;BME280;26317;44.894;20.286;2023-04-01T00:53:52;99540.16;;;16.09;61.81
40612;BME280;26317;44.894;20.286;2023-04-01T00:56:34;99527.88;;;16.12;61.78
40612;BME280;26317;44.894;20.286;2023-04-01T00:59:27;99531.06;;;16.14;61.83
40612;BME280;26317;44.894;20.286;2023-04-01T01:02:18;99539.31;;;16.18;62.78
40612;BME280;26317;44.894;20.286;2023-04-01T01:05:00;99544.72;;;16.18;63.00
40612;BME280;26317;44.894;20.286;2023-04-01T01:07:41;99550.44;;;16.16;63.40
40612;BME280;26317;44.894;20.286;2023-04-01T01:10:32;99559.44;;;16.08;65.57
40612;BME280;26317;44.894;20.286;2023-04-01T01:13:19;99547.44;;;15.97;66.41
40612;BME280;26317;44.894;20.286;2023-04-01T01:16:04;99537.41;;;15.77;68.28
40612;BME280;26317;44.894;20.286;2023-04-01T01:18:50;99521.91;;;15.65;70.05
40612;BME280;26317;44.894;20.286;2023-04-01T01:22:05;99522.91;;;15.60;71.07
40612;BME280;26317;44.894;20.286;2023-04-01T01:25:00;99496.25;;;15.50;72.63
40612;BME280;26317;44.894;20.286;2023-04-01T01:27:42;99520.78;;;15.66;73.89
40612;BME280;26317;44.894;20.286;2023-04-01T01:30:42;99513.00;;;15.64;73.93
40612;BME280;26317;44.894;20.286;2023-04-01T01:33:39;99501.91;;;15.57;73.71
40612;BME280;26317;44.894;20.286;2023-04-01T01:36:23;99487.94;;;15.55;73.97
40612;BME280;26317;44.894;20.286;2023-04-01T01:39:14;99499.56;;;15.56;74.04
40612;BME280;26317;44.894;20.286;2023-04-01T01:42:05;99494.19;;;15.47;73.52
40612;BME280;26317;44.894;20.286;2023-04-01T01:44:43;99489.09;;;15.46;73.85
40612;BME280;26317;44.894;20.286;2023-04-01T01:47:17;99473.78;;;15.29;74.00
40612;BME280;26317;44.894;20.286;2023-04-01T01:52:52;99502.78;;;15.41;74.77
40612;BME280;26317;44.894;20.286;2023-04-01T01:55:42;99495.66;;;15.36;74.94
40612;BME280;26317;44.894;20.286;2023-04-01T01:58:31;99513.09;;;15.47;74.95
40612;BME280;26317;44.894;20.286;2023-04-01T02:01:26;99489.50;;;15.36;75.48
40612;BME280;26317;44.894;20.286;2023-04-01T02:04:29;99504.72;;;15.40;76.25
40612;BME280;26317;44.894;20.286;2023-04-01T02:07:16;99515.97;;;15.42;77.38
40612;BME280;26317;44.894;20.286;2023-04-01T02:09:57;99523.94;;;15.39;77.65
40612;BME280;26317;44.894;20.286;2023-04-01T02:12:41;99528.09;;;15.36;77.66
40612;BME280;26317;44.894;20.286;2023-04-01T02:15:32;99523.88;;;15.27;77.21
40612;BME280;26317;44.894;20.286;2023-04-01T02:18:19;99536.41;;;15.31;77.00
40612;BME280;26317;44.894;20.286;2023-04-01T02:21:08;99533.22;;;15.29;77.46
40612;BME280;26317;44.894;20.286;2023-04-01T02:23:47;99525.09;;;15.29;77.43
40612;BME280;26317;44.894;20.286;2023-04-01T02:26:36;99530.84;;;15.28;78.11
40612;BME280;26317;44.894;20.286;2023-04-01T02:29:26;99527.84;;;15.20;78.13
40612;BME280;26317;44.894;20.286;2023-04-01T02:32:13;99525.81;;;15.17;78.36
40612;BME280;26317;44.894;20.286;2023-04-01T02:34:53;99492.88;;;14.95;78.39
40612;BME280;26317;44.894;20.286;2023-04-01T02:37:49;99513.47;;;15.08;78.44
40612;BME280;26317;44.894;20.286;2023-04-01T02:40:23;99508.09;;;14.99;79.51
40612;BME280;26317;44.894;20.286;2023-04-01T02:43:05;99508.44;;;14.98;79.88
40612;BME280;26317;44.894;20.286;2023-04-01T02:45:39;99524.78;;;15.01;79.77
40612;BME280;26317;44.894;20.286;2023-04-01T02:48:16;99528.44;;;14.97;80.39
40612;BME280;26317;44.894;20.286;2023-04-01T02:50:56;99529.69;;;14.99;80.49
40612;BME280;26317;44.894;20.286;2023-04-01T02:53:40;99527.34;;;14.98;80.39
40612;BME280;26317;44.894;20.286;2023-04-01T02:56:17;99524.16;;;14.96;80.32
40612;BME280;26317;44.894;20.286;2023-04-01T02:59:02;99528.63;;;14.92;80.38
40612;BME280;26317;44.894;20.286;2023-04-01T03:01:37;99519.88;;;14.95;80.79
40612;BME280;26317;44.894;20.286;2023-04-01T03:04:26;99537.34;;;14.97;81.31
40612;BME280;26317;44.894;20.286;2023-04-01T03:07:04;99522.28;;;14.88;81.18
40612;BME280;26317;44.894;20.286;2023-04-01T03:09:48;99513.25;;;14.84;81.29
40612;BME280;26317;44.894;20.286;2023-04-01T03:12:26;99524.50;;;14.94;81.06
40612;BME280;26317;44.894;20.286;2023-04-01T03:15:12;99520.53;;;14.92;81.45
40612;BME280;26317;44.894;20.286;2023-04-01T03:17:45;99517.19;;;14.86;81.05
40612;BME280;26317;44.894;20.286;2023-04-01T03:20:31;99508.22;;;14.73;80.81
40612;BME280;26317;44.894;20.286;2023-04-01T03:23:08;99485.09;;;14.55;81.16
40612;BME280;26317;44.894;20.286;2023-04-01T03:25:55;99504.63;;;14.52;82.01
40612;BME280;26317;44.894;20.286;2023-04-01T03:28:35;99501.97;;;14.44;82.96
40612;BME280;26317;44.894;20.286;2023-04-01T03:31:10;99507.97;;;14.32;83.95
40612;BME280;26317;44.894;20.286;2023-04-01T03:34:04;99521.78;;;14.22;84.46
40612;BME280;26317;44.894;20.286;2023-04-01T03:36:40;99501.97;;;14.09;84.46
40612;BME280;26317;44.894;20.286;2023-04-01T03:39:14;99516.69;;;14.29;84.87
40612;BME280;26317;44.894;20.286;2023-04-01T03:41:52;99516.09;;;14.23;85.06
40612;BME280;26317;44.894;20.286;2023-04-01T03:44:29;99517.34;;;14.26;85.38
40612;BME280;26317;44.894;20.286;2023-04-01T03:47:15;99519.09;;;14.31;85.85
40612;BME280;26317;44.894;20.286;2023-04-01T03:49:59;99514.94;;;14.33;86.02
40612;BME280;26317;44.894;20.286;2023-04-01T03:52:42;99488.47;;;14.35;86.71
40612;BME280;26317;44.894;20.286;2023-04-01T03:55:30;99480.84;;;14.37;87.37
40612;BME280;26317;44.894;20.286;2023-04-01T03:58:08;99478.50;;;14.36;86.73
40612;BME280;26317;44.894;20.286;2023-04-01T04:00:51;99465.47;;;14.38;87.44
40612;BME280;26317;44.894;20.286;2023-04-01T04:03:41;99445.31;;;14.35;87.51
40612;BME280;26317;44.894;20.286;2023-04-01T04:06:27;99453.69;;;14.42;87.36
40612;BME280;26317;44.894;20.286;2023-04-01T04:09:04;99458.66;;;14.40;86.62
40612;BME280;26317;44.894;20.286;2023-04-01T04:11:39;99457.19;;;14.34;87.05
40612;BME280;26317;44.894;20.286;2023-04-01T04:14:15;99465.00;;;14.36;87.36
40612;BME280;26317;44.894;20.286;2023-04-01T04:16:55;99454.81;;;14.24;87.15
40612;BME280;26317;44.894;20.286;2023-04-01T04:19:37;99456.91;;;14.27;86.82
40612;BME280;26317;44.894;20.286;2023-04-01T04:22:12;99467.34;;;14.37;86.09
40612;BME280;26317;44.894;20.286;2023-04-01T04:24:50;99466.38;;;14.33;86.84
40612;BME280;26317;44.894;20.286;2023-04-01T04:27:29;99460.19;;;14.33;86.99
40612;BME280;26317;44.894;20.286;2023-04-01T04:30:13;99462.44;;;14.31;86.87
40612;BME280;26317;44.894;20.286;2023-04-01T04:32:59;99455.75;;;14.28;87.13
40612;BME280;26317;44.894;20.286;2023-04-01T04:35:40;99462.28;;;14.27;86.84
40612;BME280;26317;44.894;20.286;2023-04-01T04:38:19;99451.03;;;14.25;87.13
40612;BME280;26317;44.894;20.286;2023-04-01T04:40:56;99451.66;;;14.22;87.52
40612;BME280;26317;44.894;20.286;2023-04-01T04:43:33;99449.13;;;14.17;87.23
40612;BME280;26317;44.894;20.286;2023-04-01T04:46:13;99434.56;;;14.09;87.89
40612;BME280;26317;44.894;20.286;2023-04-01T04:49:08;99429.63;;;14.11;88.74
40612;BME280;26317;44.894;20.286;2023-04-01T04:51:49;99426.31;;;14.06;88.68
40612;BME280;26317;44.894;20.286;2023-04-01T04:54:36;99424.91;;;14.00;88.76
40612;BME280;26317;44.894;20.286;2023-04-01T04:57:11;99433.13;;;14.03;89.59
40612;BME280;26317;44.894;20.286;2023-04-01T05:00:02;99416.53;;;13.84;89.87
40612;BME280;26317;44.894;20.286;2023-04-01T05:02:54;99440.91;;;14.05;90.62
40612;BME280;26317;44.894;20.286;2023-04-01T05:05:38;99442.97;;;13.99;90.24
40612;BME280;26317;44.894;20.286;2023-04-01T05:08:18;99447.13;;;13.97;90.49
40612;BME280;26317;44.894;20.286;2023-04-01T05:10:59;99433.50;;;13.85;90.62
40612;BME280;26317;44.894;20.286;2023-04-01T05:13:41;99422.41;;;13.77;91.46
40612;BME280;26317;44.894;20.286;2023-04-01T05:16:18;99410.84;;;13.77;92.05
40612;BME280;26317;44.894;20.286;2023-04-01T05:18:59;99383.09;;;13.68;92.60
40612;BME280;26317;44.894;20.286;2023-04-01T05:21:38;99366.94;;;13.59;93.40
40612;BME280;26317;44.894;20.286;2023-04-01T05:24:43;99362.22;;;13.48;94.17
40612;BME280;26317;44.894;20.286;2023-04-01T05:27:29;99361.56;;;13.42;93.99
40612;BME280;26317;44.894;20.286;2023-04-01T05:30:05;99358.38;;;13.40;94.68
40612;BME280;26317;44.894;20.286;2023-04-01T05:33:04;99366.47;;;13.49;95.01
40612;BME280;26317;44.894;20.286;2023-04-01T05:35:48;99359.03;;;13.54;95.08
40612;BME280;26317;44.894;20.286;2023-04-01T05:38:22;99346.50;;;13.58;94.86
40612;BME280;26317;44.894;20.286;2023-04-01T05:41:06;99347.59;;;13.57;95.01
40612;BME280;26317;44.894;20.286;2023-04-01T05:43:45;99343.00;;;13.58;95.23
40612;BME280;26317;44.894;20.286;2023-04-01T05:46:46;99348.88;;;13.60;94.99
40612;BME280;26317;44.894;20.286;2023-04-01T05:49:27;99339.84;;;13.64;95.32
40612;BME280;26317;44.894;20.286;2023-04-01T05:52:09;99343.78;;;13.67;95.54
40612;BME280;26317;44.894;20.286;2023-04-01T05:54:51;99346.78;;;13.65;95.88
40612;BME280;26317;44.894;20.286;2023-04-01T05:57:33;99355.66;;;13.74;95.58
40612;BME280;26317;44.894;20.286;2023-04-01T06:00:27;99343.00;;;13.66;94.89
40612;BME280;26317;44.894;20.286;2023-04-01T06:03:03;99356.59;;;13.78;94.51
40612;BME280;26317;44.894;20.286;2023-04-01T06:05:53;99343.28;;;13.73;94.56
40612;BME280;26317;44.894;20.286;2023-04-01T06:08:41;99340.28;;;13.75;94.96
40612;BME280;26317;44.894;20.286;2023-04-01T06:11:26;99344.88;;;13.74;94.98
40612;BME280;26317;44.894;20.286;2023-04-01T06:14:26;99342.03;;;13.71;95.00
40612;BME280;26317;44.894;20.286;2023-04-01T06:17:30;99336.66;;;13.62;94.30
40612;BME280;26317;44.894;20.286;2023-04-01T06:20:33;99321.28;;;13.63;94.89
40612;BME280;26317;44.894;20.286;2023-04-01T06:26:27;99332.25;;;13.49;95.52
40612;BME280;26317;44.894;20.286;2023-04-01T06:29:28;99332.25;;;13.49;95.12
40612;BME280;26317;44.894;20.286;2023-04-01T06:32:30;99329.22;;;13.51;95.93
40612;BME280;26317;44.894;20.286;2023-04-01T06:35:52;99333.03;;;13.50;96.53
40612;BME280;26317;44.894;20.286;2023-04-01T06:38:54;99331.63;;;13.44;97.27
40612;BME280;26317;44.894;20.286;2023-04-01T06:42:16;99321.16;;;13.42;97.74
40612;BME280;26317;44.894;20.286;2023-04-01T06:45:13;99316.56;;;13.43;98.07
40612;BME280;26317;44.894;20.286;2023-04-01T06:48:20;99322.25;;;13.50;97.44
40612;BME280;26317;44.894;20.286;2023-04-01T06:51:38;99329.56;;;13.41;97.86
40612;BME280;26317;44.894;20.286;2023-04-01T06:55:06;99314.34;;;13.45;97.94
40612;BME280;26317;44.894;20.286;2023-04-01T06:58:26;99303.09;;;13.51;98.89
40612;BME280;26317;44.894;20.286;2023-04-01T07:01:08;99275.06;;;13.35;98.09
40612;BME280;26317;44.894;20.286;2023-04-01T07:03:55;99283.75;;;13.49;99.05
40612;BME280;26317;44.894;20.286;2023-04-01T07:06:52;99292.47;;;13.55;99.62
40612;BME280;26317;44.894;20.286;2023-04-01T07:09:55;99276.59;;;13.62;100.00
40612;BME280;26317;44.894;20.286;2023-04-01T07:12:40;99263.00;;;13.50;100.00
40612;BME280;26317;44.894;20.286;2023-04-01T07:16:08;99276.59;;;13.62;100.00
40612;BME280;26317;44.894;20.286;2023-04-01T07:19:04;99280.06;;;13.71;100.00
40612;BME280;26317;44.894;20.286;2023-04-01T07:22:10;99276.97;;;13.98;100.00
40612;BME280;26317;44.894;20.286;2023-04-01T07:25:14;99261.38;;;14.04;100.00
40612;BME280;26317;44.894;20.286;2023-04-01T07:28:11;99246.03;;;13.96;100.00
40612;BME280;26317;44.894;20.286;2023-04-01T07:31:22;99258.16;;;14.19;100.00
40612;BME280;26317;44.894;20.286;2023-04-01T07:34:14;99250.78;;;14.28;100.00
40612;BME280;26317;44.894;20.286;2023-04-01T07:37:03;99255.44;;;14.19;99.60
40612;BME280;26317;44.894;20.286;2023-04-01T07:39:50;99263.75;;;14.05;99.07
40612;BME280;26317;44.894;20.286;2023-04-01T07:42:42;99263.03;;;13.88;98.81
40612;BME280;26317;44.894;20.286;2023-04-01T07:45:31;99257.38;;;13.80;100.00
40612;BME280;26317;44.894;20.286;2023-04-01T07:48:28;99266.28;;;13.72;100.00
40612;BME280;26317;44.894;20.286;2023-04-01T07:51:17;99276.88;;;13.77;100.00
40612;BME280;26317;44.894;20.286;2023-04-01T07:54:03;99269.41;;;13.74;100.00
40612;BME280;26317;44.894;20.286;2023-04-01T07:57:10;99258.34;;;13.67;100.00
40612;BME280;26317;44.894;20.286;2023-04-01T08:00:12;99280.56;;;13.64;100.00
40612;BME280;26317;44.894;20.286;2023-04-01T08:03:11;99276.13;;;13.60;100.00
40612;BME280;26317;44.894;20.286;2023-04-01T08:06:07;99278.50;;;13.61;100.00
40612;BME280;26317;44.894;20.286;2023-04-01T08:08:59;99270.41;;;13.61;100.00
40612;BME280;26317;44.894;20.286;2023-04-01T08:12:27;99275.03;;;13.61;100.00
40612;BME280;26317;44.894;20.286;2023-04-01T08:15:34;99275.03;;;13.61;100.00
40612;BME280;26317;44.894;20.286;2023-04-01T08:18:50;99278.97;;;13.63;100.00
40612;BME280;26317;44.894;20.286;2023-04-01T08:21:47;99278.03;;;13.59;100.00
40612;BME280;26317;44.894;20.286;2023-04-01T08:24:33;99285.47;;;13.62;100.00
40612;BME280;26317;44.894;20.286;2023-04-01T08:27:37;99291.50;;;13.59;100.00
40612;BME280;26317;44.894;20.286;2023-04-01T08:30:24;99277.91;;;13.47;100.00
40612;BME280;26317;44.894;20.286;2023-04-01T08:33:15;99253.19;;;13.36;100.00
40612;BME280;26317;44.894;20.286;2023-04-01T08:36:01;99301.78;;;13.66;100.00
40612;BME280;26317;44.894;20.286;2023-04-01T08:38:51;99302.44;;;13.54;100.00
40612;BME280;26317;44.894;20.286;2023-04-01T08:41:44;99296.13;;;13.50;100.00
40612;BME280;26317;44.894;20.286;2023-04-01T08:45:24;99299.47;;;13.30;100.00
40612;BME280;26317;44.894;20.286;2023-04-01T08:48:28;99298.00;;;13.07;100.00
40612;BME280;26317;44.894;20.286;2023-04-01T08:51:47;99299.59;;;12.90;100.00
40612;BME280;26317;44.894;20.286;2023-04-01T09:02:09;99295.13;;;12.43;100.00
40612;BME280;26317;44.894;20.286;2023-04-01T09:05:39;99295.09;;;12.34;100.00
40612;BME280;26317;44.894;20.286;2023-04-01T09:08:33;99295.97;;;12.13;100.00
40612;BME280;26317;44.894;20.286;2023-04-01T09:11:33;99295.94;;;11.73;100.00
40612;BME280;26317;44.894;20.286;2023-04-01T09:14:45;99293.91;;;11.57;100.00
40612;BME280;26317;44.894;20.286;2023-04-01T09:21:45;99303.66;;;11.22;100.00
40612;BME280;26317;44.894;20.286;2023-04-01T09:24:35;99294.84;;;11.07;100.00
40612;BME280;26317;44.894;20.286;2023-04-01T09:27:34;99298.88;;;10.96;100.00
40612;BME280;26317;44.894;20.286;2023-04-01T09:34:21;99287.25;;;11.01;100.00
40612;BME280;26317;44.894;20.286;2023-04-01T09:37:39;99277.44;;;10.83;100.00
40612;BME280;26317;44.894;20.286;2023-04-01T09:40:41;99290.31;;;10.72;100.00
40612;BME280;26317;44.894;20.286;2023-04-01T09:43:58;99291.78;;;10.65;100.00
40612;BME280;26317;44.894;20.286;2023-04-01T09:46:56;99279.00;;;10.48;100.00
40612;BME280;26317;44.894;20.286;2023-04-01T09:53:18;99288.78;;;10.30;100.00
40612;BME280;26317;44.894;20.286;2023-04-01T09:59:52;99280.44;;;10.32;100.00
40612;BME280;26317;44.894;20.286;2023-04-01T10:06:25;99283.63;;;10.34;100.00
40612;BME280;26317;44.894;20.286;2023-04-01T10:09:47;99279.84;;;10.35;100.00
40612;BME280;26317;44.894;20.286;2023-04-01T10:12:54;99292.66;;;10.38;100.00
40612;BME280;26317;44.894;20.286;2023-04-01T10:15:53;99294.53;;;10.37;100.00
40612;BME280;26317;44.894;20.286;2023-04-01T10:22:12;99297.72;;;10.39;100.00
40612;BME280;26317;44.894;20.286;2023-04-01T10:25:10;99293.44;;;10.38;100.00
40612;BME280;26317;44.894;20.286;2023-04-01T10:39:11;99321.50;;;10.13;100.00
40612;BME280;26317;44.894;20.286;2023-04-01T10:42:38;99326.59;;;10.15;100.00
40612;BME280;26317;44.894;20.286;2023-04-01T10:49:56;99355.38;;;10.23;100.00
40612;BME280;26317;44.894;20.286;2023-04-01T10:53:18;99355.78;;;10.17;100.00
40612;BME280;26317;44.894;20.286;2023-04-01T10:56:42;99365.59;;;10.21;100.00
40612;BME280;26317;44.894;20.286;2023-04-01T11:03:35;99392.41;;;10.35;100.00
40612;BME280;26317;44.894;20.286;2023-04-01T11:10:30;99391.81;;;10.38;100.00
40612;BME280;26317;44.894;20.286;2023-04-01T11:13:57;99404.13;;;10.39;100.00
40612;BME280;26317;44.894;20.286;2023-04-01T11:17:06;99408.59;;;10.43;100.00
40612;BME280;26317;44.894;20.286;2023-04-01T11:20:34;99411.97;;;10.49;100.00
40612;BME280;26317;44.894;20.286;2023-04-01T11:23:46;99421.09;;;10.48;100.00
40612;BME280;26317;44.894;20.286;2023-04-01T11:26:55;99429.13;;;10.48;100.00
40612;BME280;26317;44.894;20.286;2023-04-01T11:30:20;99435.91;;;10.59;100.00
40612;BME280;26317;44.894;20.286;2023-04-01T11:33:17;99432.63;;;10.62;100.00
40612;BME280;26317;44.894;20.286;2023-04-01T11:36:16;99443.06;;;10.50;100.00
40612;BME280;26317;44.894;20.286;2023-04-01T11:39:34;99450.31;;;10.63;100.00
40612;BME280;26317;44.894;20.286;2023-04-01T11:42:41;99455.56;;;10.54;100.00
40612;BME280;26317;44.894;20.286;2023-04-01T11:45:46;99460.53;;;10.47;100.00
40612;BME280;26317;44.894;20.286;2023-04-01T11:48:41;99464.50;;;10.50;100.00
40612;BME280;26317;44.894;20.286;2023-04-01T11:51:50;99477.91;;;10.50;100.00
40612;BME280;26317;44.894;20.286;2023-04-01T11:54:44;99483.97;;;10.55;100.00
40612;BME280;26317;44.894;20.286;2023-04-01T11:57:59;99480.66;;;10.45;100.00
40612;BME280;26317;44.894;20.286;2023-04-01T12:01:07;99489.03;;;10.57;100.00
40612;BME280;26317;44.894;20.286;2023-04-01T12:04:13;99483.97;;;10.55;100.00
40612;BME280;26317;44.894;20.286;2023-04-01T12:06:59;99494.22;;;10.67;100.00
40612;BME280;26317;44.894;20.286;2023-04-01T12:09:51;99504.44;;;10.65;100.00
40612;BME280;26317;44.894;20.286;2023-04-01T12:12:36;99510.78;;;10.55;100.00
40612;BME280;26317;44.894;20.286;2023-04-01T12:15:36;99493.06;;;10.41;100.00
40612;BME280;26317;44.894;20.286;2023-04-01T12:18:20;99526.47;;;10.62;100.00
40612;BME280;26317;44.894;20.286;2023-04-01T12:21:25;99508.78;;;10.61;100.00
40612;BME280;26317;44.894;20.286;2023-04-01T12:24:36;99524.31;;;10.64;100.00
40612;BME280;26317;44.894;20.286;2023-04-01T12:27:50;99528.06;;;10.63;100.00
40612;BME280;26317;44.894;20.286;2023-04-01T12:30:48;99540.41;;;10.64;100.00
40612;BME280;26317;44.894;20.286;2023-04-01T12:33:52;99530.03;;;10.57;100.00
40612;BME280;26317;44.894;20.286;2023-04-01T12:36:56;99543.25;;;10.54;100.00
40612;BME280;26317;44.894;20.286;2023-04-01T12:46:38;99561.94;;;10.59;100.00
40612;BME280;26317;44.894;20.286;2023-04-01T12:49:55;99566.22;;;10.60;100.00
40612;BME280;26317;44.894;20.286;2023-04-01T12:52:49;99557.44;;;10.54;100.00
40612;BME280;26317;44.894;20.286;2023-04-01T12:55:46;99530.19;;;10.34;100.00
40612;BME280;26317;44.894;20.286;2023-04-01T13:08:18;99583.63;;;10.44;100.00
40612;BME280;26317;44.894;20.286;2023-04-01T13:11:11;99587.47;;;10.38;100.00
40612;BME280;26317;44.894;20.286;2023-04-01T13:17:11;99583.19;;;10.37;100.00
40612;BME280;26317;44.894;20.286;2023-04-01T13:20:02;99598.94;;;10.43;100.00
40612;BME280;26317;44.894;20.286;2023-04-01T13:22:59;99608.06;;;10.42;100.00
40612;BME280;26317;44.894;20.286;2023-04-01T13:25:47;99596.13;;;10.35;100.00
40612;BME280;26317;44.894;20.286;2023-04-01T13:28:41;99613.91;;;10.44;100.00
40612;BME280;26317;44.894;20.286;2023-04-01T13:31:45;99624.41;;;10.41;100.00
40612;BME280;26317;44.894;20.286;2023-04-01T13:34:42;99621.47;;;10.42;100.00
40612;BME280;26317;44.894;20.286;2023-04-01T13:37:43;99632.78;;;10.39;100.00
40612;BME280;26317;44.894;20.286;2023-04-01T13:40:42;99628.19;;;10.40;100.00
40612;BME280;26317;44.894;20.286;2023-04-01T13:43:38;99625.22;;;10.41;100.00
40612;BME280;26317;44.894;20.286;2023-04-01T13:46:36;99633.47;;;10.45;100.00
40612;BME280;26317;44.894;20.286;2023-04-01T13:53:03;99643.59;;;10.48;100.00
40612;BME280;26317;44.894;20.286;2023-04-01T13:56:15;99641.84;;;10.57;100.00
40612;BME280;26317;44.894;20.286;2023-04-01T13:59:23;99643.03;;;10.51;100.00
40612;BME280;26317;44.894;20.286;2023-04-01T14:02:02;99648.41;;;10.51;100.00
40612;BME280;26317;44.894;20.286;2023-04-01T14:04:58;99642.09;;;10.42;100.00
40612;BME280;26317;44.894;20.286;2023-04-01T14:07:57;99648.84;;;10.39;100.00
40612;BME280;26317;44.894;20.286;2023-04-01T14:10:43;99655.50;;;10.42;100.00
40612;BME280;26317;44.894;20.286;2023-04-01T14:13:39;99647.25;;;10.38;100.00
40612;BME280;26317;44.894;20.286;2023-04-01T14:16:47;99640.50;;;10.41;100.00
40612;BME280;26317;44.894;20.286;2023-04-01T14:19:37;99648.97;;;10.48;100.00
40612;BME280;26317;44.894;20.286;2023-04-01T14:22:38;99640.50;;;10.41;100.00
40612;BME280;26317;44.894;20.286;2023-04-01T14:28:31;99645.19;;;10.49;100.00
40612;BME280;26317;44.894;20.286;2023-04-01T14:31:40;99642.25;;;10.50;100.00
40612;BME280;26317;44.894;20.286;2023-04-01T14:34:49;99649.75;;;10.48;100.00
40612;BME280;26317;44.894;20.286;2023-04-01T14:38:21;99648.41;;;10.51;100.00
40612;BME280;26317;44.894;20.286;2023-04-01T14:41:20;99652.59;;;10.57;100.00
40612;BME280;26317;44.894;20.286;2023-04-01T14:47:30;99633.88;;;10.71;100.00
40612;BME280;26317;44.894;20.286;2023-04-01T14:50:18;99646.13;;;10.77;100.00
40612;BME280;26317;44.894;20.286;2023-04-01T14:53:16;99643.94;;;10.79;100.00
40612;BME280;26317;44.894;20.286;2023-04-01T14:56:02;99632.84;;;10.85;100.00
40612;BME280;26317;44.894;20.286;2023-04-01T14:58:49;99624.88;;;10.80;100.00
40612;BME280;26317;44.894;20.286;2023-04-01T15:01:39;99632.66;;;10.95;100.00
40612;BME280;26317;44.894;20.286;2023-04-01T15:04:41;99609.78;;;10.84;100.00
40612;BME280;26317;44.894;20.286;2023-04-01T15:10:47;99621.72;;;10.92;100.00
40612;BME280;26317;44.894;20.286;2023-04-01T15:13:45;99644.00;;;11.06;100.00
40612;BME280;26317;44.894;20.286;2023-04-01T15:16:47;99635.66;;;11.07;100.00
40612;BME280;26317;44.894;20.286;2023-04-01T15:19:29;99641.53;;;11.10;100.00
40612;BME280;26317;44.894;20.286;2023-04-01T15:22:38;99641.00;;;11.07;100.00
40612;BME280;26317;44.894;20.286;2023-04-01T15:25:26;99639.91;;;10.95;100.00
40612;BME280;26317;44.894;20.286;2023-04-01T15:28:17;99653.94;;;11.05;100.00
40612;BME280;26317;44.894;20.286;2023-04-01T15:31:04;99624.50;;;11.00;100.00
40612;BME280;26317;44.894;20.286;2023-04-01T15:37:02;99663.69;;;11.01;100.00
40612;BME280;26317;44.894;20.286;2023-04-01T15:39:56;99669.03;;;11.01;100.00
40612;BME280;26317;44.894;20.286;2023-04-01T15:42:45;99658.88;;;10.98;100.00
40612;BME280;26317;44.894;20.286;2023-04-01T15:45:34;99673.28;;;11.02;100.00
40612;BME280;26317;44.894;20.286;2023-04-01T15:48:31;99661.56;;;10.98;100.00
40612;BME280;26317;44.894;20.286;2023-04-01T15:51:51;99672.00;;;11.00;100.00
40612;BME280;26317;44.894;20.286;2023-04-01T15:54:54;99651.22;;;10.92;100.00
40612;BME280;26317;44.894;20.286;2023-04-01T15:57:46;99679.09;;;11.10;100.00
40612;BME280;26317;44.894;20.286;2023-04-01T16:00:29;99674.41;;;11.15;100.00
40612;BME280;26317;44.894;20.286;2023-04-01T16:03:21;99671.44;;;11.17;100.00
40612;BME280;26317;44.894;20.286;2023-04-01T16:09:50;99676.25;;;11.33;100.00
40612;BME280;26317;44.894;20.286;2023-04-01T16:12:57;99681.03;;;11.36;100.00
40612;BME280;26317;44.894;20.286;2023-04-01T16:16:02;99683.13;;;11.39;100.00
40612;BME280;26317;44.894;20.286;2023-04-01T16:19:13;99687.19;;;11.37;100.00
40612;BME280;26317;44.894;20.286;2023-04-01T16:22:15;99686.38;;;11.36;100.00
40612;BME280;26317;44.894;20.286;2023-04-01T16:25:20;99682.63;;;11.37;100.00
40612;BME280;26317;44.894;20.286;2023-04-01T16:28:15;99693.34;;;11.37;100.00
40612;BME280;26317;44.894;20.286;2023-04-01T16:31:08;99694.34;;;11.41;100.00
40612;BME280;26317;44.894;20.286;2023-04-01T16:33:56;99700.53;;;11.42;100.00
40612;BME280;26317;44.894;20.286;2023-04-01T16:36:41;99697.13;;;11.36;100.00
40612;BME280;26317;44.894;20.286;2023-04-01T16:39:49;99702.94;;;11.43;100.00
40612;BME280;26317;44.894;20.286;2023-04-01T16:42:35;99710.28;;;11.51;100.00